sensor_id;sensor_type;location;lat;lon;timestamp;P1;durP1;ratioP1;P2;durP2;ratioP2
23228;SDS011;11783;50.350;6.576;2023-11-18T00:00:37;23.13;;;10.10;;
23228;SDS011;11783;50.350;6.576;2023-11-18T00:03:04;23.23;;;10.98;;
23228;SDS011;11783;50.350;6.576;2023-11-18T00:05:30;23.27;;;11.50;;
23228;SDS011;11783;50.350;6.576;2023-11-18T00:07:55;20.73;;;9.75;;
23228;SDS011;11783;50.350;6.576;2023-11-18T00:10:21;27.05;;;11.65;;
23228;SDS011;11783;50.350;6.576;2023-11-18T00:12:46;26.92;;;12.05;;
23228;SDS011;11783;50.350;6.576;2023-11-18T00:15:12;25.23;;;11.95;;
23228;SDS011;11783;50.350;6.576;2023-11-18T00:17:37;23.58;;;11.65;;
23228;SDS011;11783;50.350;6.576;2023-11-18T00:20:03;23.73;;;11.60;;
23228;SDS011;11783;50.350;6.576;2023-11-18T00:22:34;26.88;;;12.10;;
23228;SDS011;11783;50.350;6.576;2023-11-18T00:25:03;24.98;;;11.13;;
23228;SDS011;11783;50.350;6.576;2023-11-18T00:27:35;24.75;;;11.23;;
23228;SDS011;11783;50.350;6.576;2023-11-18T00:30:02;26.58;;;12.05;;
23228;SDS011;11783;50.350;6.576;2023-11-18T00:32:30;26.83;;;12.43;;
23228;SDS011;11783;50.350;6.576;2023-11-18T00:34:56;24.98;;;12.27;;
23228;SDS011;11783;50.350;6.576;2023-11-18T00:37:22;23.92;;;11.02;;
23228;SDS011;11783;50.350;6.576;2023-11-18T00:39:47;26.00;;;11.75;;
23228;SDS011;11783;50.350;6.576;2023-11-18T00:42:13;21.52;;;11.00;;
23228;SDS011;11783;50.350;6.576;2023-11-18T00:44:38;24.63;;;11.93;;
23228;SDS011;11783;50.350;6.576;2023-11-18T00:47:03;25.95;;;11.70;;
23228;SDS011;11783;50.350;6.576;2023-11-18T00:49:29;25.17;;;11.88;;
23228;SDS011;11783;50.350;6.576;2023-11-18T00:51:55;23.48;;;10.95;;
23228;SDS011;11783;50.350;6.576;2023-11-18T00:54:20;21.83;;;10.07;;
23228;SDS011;11783;50.350;6.576;2023-11-18T00:56:45;24.10;;;10.35;;
23228;SDS011;11783;50.350;6.576;2023-11-18T00:59:11;24.48;;;11.13;;
23228;SDS011;11783;50.350;6.576;2023-11-18T01:01:36;23.33;;;11.25;;
23228;SDS011;11783;50.350;6.576;2023-11-18T01:04:02;24.67;;;12.30;;
23228;SDS011;11783;50.350;6.576;2023-11-18T01:06:28;25.80;;;11.60;;
23228;SDS011;11783;50.350;6.576;2023-11-18T01:08:53;26.33;;;12.38;;
23228;SDS011;11783;50.350;6.576;2023-11-18T01:11:19;27.05;;;11.77;;
23228;SDS011;11783;50.350;6.576;2023-11-18T01:13:45;22.60;;;11.52;;
23228;SDS011;11783;50.350;6.576;2023-11-18T01:16:11;26.08;;;11.20;;
23228;SDS011;11783;50.350;6.576;2023-11-18T01:18:36;24.48;;;10.65;;
23228;SDS011;11783;50.350;6.576;2023-11-18T01:21:02;24.83;;;11.75;;
23228;SDS011;11783;50.350;6.576;2023-11-18T01:23:27;24.38;;;11.18;;
23228;SDS011;11783;50.350;6.576;2023-11-18T01:25:53;23.88;;;11.05;;
23228;SDS011;11783;50.350;6.576;2023-11-18T01:28:18;25.75;;;11.73;;
23228;SDS011;11783;50.350;6.576;2023-11-18T01:30:44;24.27;;;11.40;;
23228;SDS011;11783;50.350;6.576;2023-11-18T01:33:10;24.13;;;12.10;;
23228;SDS011;11783;50.350;6.576;2023-11-18T01:35:35;24.15;;;10.88;;
23228;SDS011;11783;50.350;6.576;2023-11-18T01:38:01;25.33;;;11.38;;
23228;SDS011;11783;50.350;6.576;2023-11-18T01:40:27;23.75;;;11.60;;
23228;SDS011;11783;50.350;6.576;2023-11-18T01:42:55;24.83;;;11.55;;
23228;SDS011;11783;50.350;6.576;2023-11-18T01:45:21;26.23;;;12.43;;
23228;SDS011;11783;50.350;6.576;2023-11-18T01:47:46;24.48;;;11.38;;
23228;SDS011;11783;50.350;6.576;2023-11-18T01:50:13;24.05;;;11.18;;
23228;SDS011;11783;50.350;6.576;2023-11-18T01:52:40;28.10;;;11.27;;
23228;SDS011;11783;50.350;6.576;2023-11-18T01:55:06;25.38;;;10.98;;
23228;SDS011;11783;50.350;6.576;2023-11-18T01:57:35;26.08;;;10.85;;
23228;SDS011;11783;50.350;6.576;2023-11-18T02:00:02;24.02;;;11.77;;
23228;SDS011;11783;50.350;6.576;2023-11-18T02:02:31;25.65;;;11.02;;
23228;SDS011;11783;50.350;6.576;2023-11-18T02:07:28;23.33;;;10.10;;
23228;SDS011;11783;50.350;6.576;2023-11-18T02:09:54;24.30;;;10.77;;
23228;SDS011;11783;50.350;6.576;2023-11-18T02:12:24;22.67;;;10.38;;
23228;SDS011;11783;50.350;6.576;2023-11-18T02:14:54;21.90;;;10.68;;
23228;SDS011;11783;50.350;6.576;2023-11-18T02:17:23;24.20;;;9.85;;
23228;SDS011;11783;50.350;6.576;2023-11-18T02:19:53;24.40;;;10.60;;
23228;SDS011;11783;50.350;6.576;2023-11-18T02:22:21;24.02;;;10.60;;
23228;SDS011;11783;50.350;6.576;2023-11-18T02:24:48;19.77;;;9.27;;
23228;SDS011;11783;50.350;6.576;2023-11-18T02:27:13;23.48;;;10.45;;
23228;SDS011;11783;50.350;6.576;2023-11-18T02:29:40;23.40;;;10.30;;
23228;SDS011;11783;50.350;6.576;2023-11-18T02:35:16;21.85;;;9.43;;
23228;SDS011;11783;50.350;6.576;2023-11-18T02:37:49;19.50;;;9.63;;
23228;SDS011;11783;50.350;6.576;2023-11-18T02:40:19;19.50;;;9.40;;
23228;SDS011;11783;50.350;6.576;2023-11-18T02:42:46;19.20;;;9.70;;
23228;SDS011;11783;50.350;6.576;2023-11-18T02:45:14;21.05;;;10.43;;
23228;SDS011;11783;50.350;6.576;2023-11-18T02:47:44;20.70;;;9.65;;
23228;SDS011;11783;50.350;6.576;2023-11-18T02:50:10;19.35;;;9.73;;
23228;SDS011;11783;50.350;6.576;2023-11-18T02:52:36;22.83;;;10.75;;
23228;SDS011;11783;50.350;6.576;2023-11-18T02:55:03;22.98;;;9.50;;
23228;SDS011;11783;50.350;6.576;2023-11-18T02:57:33;14.35;;;7.22;;
23228;SDS011;11783;50.350;6.576;2023-11-18T03:00:02;22.73;;;10.75;;
23228;SDS011;11783;50.350;6.576;2023-11-18T03:02:29;18.13;;;9.00;;
23228;SDS011;11783;50.350;6.576;2023-11-18T03:04:56;18.20;;;9.02;;
23228;SDS011;11783;50.350;6.576;2023-11-18T03:07:22;18.23;;;9.13;;
23228;SDS011;11783;50.350;6.576;2023-11-18T03:09:47;21.45;;;9.88;;
23228;SDS011;11783;50.350;6.576;2023-11-18T03:12:13;22.92;;;10.93;;
23228;SDS011;11783;50.350;6.576;2023-11-18T03:14:38;23.45;;;10.27;;
23228;SDS011;11783;50.350;6.576;2023-11-18T03:17:04;20.05;;;9.57;;
23228;SDS011;11783;50.350;6.576;2023-11-18T03:19:34;20.98;;;9.80;;
23228;SDS011;11783;50.350;6.576;2023-11-18T03:22:00;22.95;;;10.30;;
23228;SDS011;11783;50.350;6.576;2023-11-18T03:24:26;20.55;;;9.82;;
23228;SDS011;11783;50.350;6.576;2023-11-18T03:26:53;18.98;;;8.98;;
23228;SDS011;11783;50.350;6.576;2023-11-18T03:29:20;19.23;;;9.73;;
23228;SDS011;11783;50.350;6.576;2023-11-18T03:31:45;23.30;;;9.75;;
23228;SDS011;11783;50.350;6.576;2023-11-18T03:34:13;21.80;;;9.85;;
23228;SDS011;11783;50.350;6.576;2023-11-18T03:36:39;19.55;;;9.48;;
23228;SDS011;11783;50.350;6.576;2023-11-18T03:39:04;20.58;;;10.52;;
23228;SDS011;11783;50.350;6.576;2023-11-18T03:41:31;23.73;;;11.30;;
23228;SDS011;11783;50.350;6.576;2023-11-18T03:43:56;20.90;;;11.52;;
23228;SDS011;11783;50.350;6.576;2023-11-18T03:46:22;19.95;;;10.00;;
23228;SDS011;11783;50.350;6.576;2023-11-18T03:48:47;21.67;;;9.85;;
23228;SDS011;11783;50.350;6.576;2023-11-18T03:51:13;17.73;;;8.63;;
23228;SDS011;11783;50.350;6.576;2023-11-18T03:53:41;19.40;;;9.20;;
23228;SDS011;11783;50.350;6.576;2023-11-18T03:56:07;17.92;;;8.95;;
23228;SDS011;11783;50.350;6.576;2023-11-18T03:58:33;20.35;;;9.20;;
23228;SDS011;11783;50.350;6.576;2023-11-18T04:00:59;20.83;;;8.90;;
23228;SDS011;11783;50.350;6.576;2023-11-18T04:03:26;19.38;;;9.52;;
23228;SDS011;11783;50.350;6.576;2023-11-18T04:05:51;20.33;;;8.93;;
23228;SDS011;11783;50.350;6.576;2023-11-18T04:08:17;21.92;;;9.13;;
23228;SDS011;11783;50.350;6.576;2023-11-18T04:10:42;16.80;;;8.57;;
23228;SDS011;11783;50.350;6.576;2023-11-18T04:13:08;21.42;;;9.70;;
23228;SDS011;11783;50.350;6.576;2023-11-18T04:15:33;19.05;;;9.10;;
23228;SDS011;11783;50.350;6.576;2023-11-18T04:18:00;21.50;;;9.50;;
23228;SDS011;11783;50.350;6.576;2023-11-18T04:20:26;17.73;;;8.90;;
23228;SDS011;11783;50.350;6.576;2023-11-18T04:22:51;16.25;;;8.25;;
23228;SDS011;11783;50.350;6.576;2023-11-18T04:25:16;15.20;;;7.47;;
23228;SDS011;11783;50.350;6.576;2023-11-18T04:27:42;14.98;;;7.90;;
23228;SDS011;11783;50.350;6.576;2023-11-18T04:30:07;15.00;;;7.50;;
23228;SDS011;11783;50.350;6.576;2023-11-18T04:32:37;14.98;;;7.55;;
23228;SDS011;11783;50.350;6.576;2023-11-18T04:35:03;13.57;;;6.82;;
23228;SDS011;11783;50.350;6.576;2023-11-18T04:37:34;14.70;;;7.57;;
23228;SDS011;11783;50.350;6.576;2023-11-18T04:40:00;13.45;;;6.70;;
23228;SDS011;11783;50.350;6.576;2023-11-18T04:42:26;19.88;;;8.10;;
23228;SDS011;11783;50.350;6.576;2023-11-18T04:44:51;17.88;;;7.20;;
23228;SDS011;11783;50.350;6.576;2023-11-18T04:47:17;16.27;;;7.85;;
23228;SDS011;11783;50.350;6.576;2023-11-18T04:49:43;17.27;;;7.75;;
23228;SDS011;11783;50.350;6.576;2023-11-18T04:52:09;16.65;;;8.57;;
23228;SDS011;11783;50.350;6.576;2023-11-18T04:54:35;19.52;;;8.98;;
23228;SDS011;11783;50.350;6.576;2023-11-18T04:57:01;19.23;;;8.70;;
23228;SDS011;11783;50.350;6.576;2023-11-18T04:59:26;20.08;;;9.38;;
23228;SDS011;11783;50.350;6.576;2023-11-18T05:01:51;19.25;;;8.70;;
23228;SDS011;11783;50.350;6.576;2023-11-18T05:04:18;22.33;;;9.30;;
23228;SDS011;11783;50.350;6.576;2023-11-18T05:06:43;18.98;;;9.40;;
23228;SDS011;11783;50.350;6.576;2023-11-18T05:09:09;22.13;;;10.02;;
23228;SDS011;11783;50.350;6.576;2023-11-18T05:11:35;18.02;;;9.13;;
23228;SDS011;11783;50.350;6.576;2023-11-18T05:14:04;21.60;;;10.45;;
23228;SDS011;11783;50.350;6.576;2023-11-18T05:16:29;21.65;;;9.77;;
23228;SDS011;11783;50.350;6.576;2023-11-18T05:18:55;19.27;;;9.27;;
23228;SDS011;11783;50.350;6.576;2023-11-18T05:21:20;20.65;;;9.35;;
23228;SDS011;11783;50.350;6.576;2023-11-18T05:23:46;19.52;;;8.70;;
23228;SDS011;11783;50.350;6.576;2023-11-18T05:26:12;18.48;;;8.77;;
23228;SDS011;11783;50.350;6.576;2023-11-18T05:28:37;22.35;;;9.70;;
23228;SDS011;11783;50.350;6.576;2023-11-18T05:31:03;19.10;;;8.75;;
23228;SDS011;11783;50.350;6.576;2023-11-18T05:33:30;19.73;;;9.02;;
23228;SDS011;11783;50.350;6.576;2023-11-18T05:35:56;17.58;;;8.63;;
23228;SDS011;11783;50.350;6.576;2023-11-18T05:38:22;17.83;;;9.32;;
23228;SDS011;11783;50.350;6.576;2023-11-18T05:40:49;20.20;;;8.98;;
23228;SDS011;11783;50.350;6.576;2023-11-18T05:43:26;20.95;;;9.73;;
23228;SDS011;11783;50.350;6.576;2023-11-18T05:46:02;19.15;;;9.00;;
23228;SDS011;11783;50.350;6.576;2023-11-18T05:48:43;27.10;;;9.85;;
23228;SDS011;11783;50.350;6.576;2023-11-18T05:51:09;26.00;;;9.02;;
23228;SDS011;11783;50.350;6.576;2023-11-18T05:53:39;20.35;;;8.25;;
23228;SDS011;11783;50.350;6.576;2023-11-18T05:56:11;17.80;;;8.98;;
23228;SDS011;11783;50.350;6.576;2023-11-18T05:58:37;19.42;;;8.20;;
23228;SDS011;11783;50.350;6.576;2023-11-18T06:01:05;18.73;;;8.60;;
23228;SDS011;11783;50.350;6.576;2023-11-18T06:03:36;13.77;;;6.80;;
23228;SDS011;11783;50.350;6.576;2023-11-18T06:06:06;15.10;;;7.95;;
23228;SDS011;11783;50.350;6.576;2023-11-18T06:08:36;16.45;;;7.63;;
23228;SDS011;11783;50.350;6.576;2023-11-18T06:11:11;20.05;;;7.75;;
23228;SDS011;11783;50.350;6.576;2023-11-18T06:16:21;16.83;;;7.55;;
23228;SDS011;11783;50.350;6.576;2023-11-18T06:18:52;15.93;;;7.07;;
23228;SDS011;11783;50.350;6.576;2023-11-18T06:21:24;14.15;;;6.15;;
23228;SDS011;11783;50.350;6.576;2023-11-18T06:23:53;16.15;;;6.75;;
23228;SDS011;11783;50.350;6.576;2023-11-18T06:26:22;16.73;;;6.72;;
23228;SDS011;11783;50.350;6.576;2023-11-18T06:28:51;15.25;;;6.63;;
23228;SDS011;11783;50.350;6.576;2023-11-18T06:31:18;13.95;;;6.40;;
23228;SDS011;11783;50.350;6.576;2023-11-18T06:33:45;13.48;;;5.85;;
23228;SDS011;11783;50.350;6.576;2023-11-18T06:38:47;14.38;;;6.20;;
23228;SDS011;11783;50.350;6.576;2023-11-18T06:41:17;12.35;;;5.63;;
23228;SDS011;11783;50.350;6.576;2023-11-18T06:43:44;10.88;;;4.97;;
23228;SDS011;11783;50.350;6.576;2023-11-18T06:46:20;13.35;;;5.13;;
23228;SDS011;11783;50.350;6.576;2023-11-18T06:48:53;10.90;;;4.80;;
23228;SDS011;11783;50.350;6.576;2023-11-18T06:51:22;11.10;;;4.95;;
23228;SDS011;11783;50.350;6.576;2023-11-18T06:53:51;12.75;;;4.75;;
23228;SDS011;11783;50.350;6.576;2023-11-18T06:56:20;7.45;;;3.75;;
23228;SDS011;11783;50.350;6.576;2023-11-18T06:58:45;10.43;;;4.82;;
23228;SDS011;11783;50.350;6.576;2023-11-18T07:01:13;15.18;;;5.70;;
23228;SDS011;11783;50.350;6.576;2023-11-18T07:03:42;11.98;;;5.55;;
23228;SDS011;11783;50.350;6.576;2023-11-18T07:06:09;12.50;;;5.15;;
23228;SDS011;11783;50.350;6.576;2023-11-18T07:08:37;11.10;;;5.15;;
23228;SDS011;11783;50.350;6.576;2023-11-18T07:11:04;11.98;;;5.05;;
23228;SDS011;11783;50.350;6.576;2023-11-18T07:13:31;17.85;;;6.10;;
23228;SDS011;11783;50.350;6.576;2023-11-18T07:15:58;15.98;;;5.40;;
23228;SDS011;11783;50.350;6.576;2023-11-18T07:18:24;16.60;;;5.82;;
23228;SDS011;11783;50.350;6.576;2023-11-18T07:20:49;14.65;;;5.47;;
23228;SDS011;11783;50.350;6.576;2023-11-18T07:23:18;18.05;;;6.50;;
23228;SDS011;11783;50.350;6.576;2023-11-18T07:25:44;15.77;;;5.28;;
23228;SDS011;11783;50.350;6.576;2023-11-18T07:28:11;14.30;;;5.35;;
23228;SDS011;11783;50.350;6.576;2023-11-18T07:30:36;15.43;;;5.43;;
23228;SDS011;11783;50.350;6.576;2023-11-18T07:33:02;15.70;;;6.03;;
23228;SDS011;11783;50.350;6.576;2023-11-18T07:35:28;20.55;;;6.50;;
23228;SDS011;11783;50.350;6.576;2023-11-18T07:37:54;14.98;;;5.18;;
23228;SDS011;11783;50.350;6.576;2023-11-18T07:40:20;14.18;;;5.28;;
23228;SDS011;11783;50.350;6.576;2023-11-18T07:42:53;19.23;;;5.88;;
23228;SDS011;11783;50.350;6.576;2023-11-18T07:45:21;12.32;;;4.97;;
23228;SDS011;11783;50.350;6.576;2023-11-18T07:47:49;15.20;;;5.53;;
23228;SDS011;11783;50.350;6.576;2023-11-18T07:50:16;17.60;;;5.65;;
23228;SDS011;11783;50.350;6.576;2023-11-18T07:52:42;14.43;;;5.30;;
23228;SDS011;11783;50.350;6.576;2023-11-18T07:55:08;14.30;;;4.72;;
23228;SDS011;11783;50.350;6.576;2023-11-18T07:57:36;11.43;;;4.57;;
23228;SDS011;11783;50.350;6.576;2023-11-18T08:00:02;9.07;;;4.03;;
23228;SDS011;11783;50.350;6.576;2023-11-18T08:02:34;12.10;;;4.07;;
23228;SDS011;11783;50.350;6.576;2023-11-18T08:05:01;12.30;;;4.70;;
23228;SDS011;11783;50.350;6.576;2023-11-18T08:07:28;14.02;;;4.43;;
23228;SDS011;11783;50.350;6.576;2023-11-18T08:09:53;12.98;;;4.70;;
23228;SDS011;11783;50.350;6.576;2023-11-18T08:12:18;10.18;;;4.95;;
23228;SDS011;11783;50.350;6.576;2023-11-18T08:14:45;15.90;;;4.70;;
23228;SDS011;11783;50.350;6.576;2023-11-18T08:17:10;10.68;;;4.60;;
23228;SDS011;11783;50.350;6.576;2023-11-18T08:19:37;9.43;;;4.22;;
23228;SDS011;11783;50.350;6.576;2023-11-18T08:22:03;12.32;;;4.63;;
23228;SDS011;11783;50.350;6.576;2023-11-18T08:24:29;14.57;;;5.07;;
23228;SDS011;11783;50.350;6.576;2023-11-18T08:26:55;10.00;;;4.43;;
23228;SDS011;11783;50.350;6.576;2023-11-18T08:29:20;11.25;;;4.20;;
23228;SDS011;11783;50.350;6.576;2023-11-18T08:31:46;12.35;;;4.57;;
23228;SDS011;11783;50.350;6.576;2023-11-18T08:34:11;11.38;;;4.38;;
23228;SDS011;11783;50.350;6.576;2023-11-18T08:36:37;11.50;;;3.92;;
23228;SDS011;11783;50.350;6.576;2023-11-18T08:39:02;8.80;;;3.47;;
23228;SDS011;11783;50.350;6.576;2023-11-18T08:41:29;11.55;;;4.10;;
23228;SDS011;11783;50.350;6.576;2023-11-18T08:43:56;10.38;;;4.20;;
23228;SDS011;11783;50.350;6.576;2023-11-18T08:46:22;13.52;;;4.18;;
23228;SDS011;11783;50.350;6.576;2023-11-18T08:48:47;9.05;;;3.78;;
23228;SDS011;11783;50.350;6.576;2023-11-18T08:51:13;7.03;;;3.78;;
23228;SDS011;11783;50.350;6.576;2023-11-18T08:53:40;10.48;;;3.40;;
23228;SDS011;11783;50.350;6.576;2023-11-18T08:56:07;8.13;;;3.50;;
23228;SDS011;11783;50.350;6.576;2023-11-18T08:58:42;8.10;;;3.40;;
23228;SDS011;11783;50.350;6.576;2023-11-18T09:01:09;8.07;;;3.55;;
23228;SDS011;11783;50.350;6.576;2023-11-18T09:03:41;8.57;;;3.25;;
23228;SDS011;11783;50.350;6.576;2023-11-18T09:06:17;9.80;;;4.70;;
23228;SDS011;11783;50.350;6.576;2023-11-18T09:08:43;9.98;;;3.70;;
23228;SDS011;11783;50.350;6.576;2023-11-18T09:11:13;10.95;;;3.78;;
23228;SDS011;11783;50.350;6.576;2023-11-18T09:13:40;10.82;;;4.32;;
23228;SDS011;11783;50.350;6.576;2023-11-18T09:16:09;10.88;;;4.65;;
23228;SDS011;11783;50.350;6.576;2023-11-18T09:18:36;8.52;;;3.80;;
23228;SDS011;11783;50.350;6.576;2023-11-18T09:21:04;12.02;;;4.80;;
23228;SDS011;11783;50.350;6.576;2023-11-18T09:23:32;9.02;;;3.83;;
23228;SDS011;11783;50.350;6.576;2023-11-18T09:25:59;11.35;;;4.25;;
23228;SDS011;11783;50.350;6.576;2023-11-18T09:28:25;9.90;;;4.13;;
23228;SDS011;11783;50.350;6.576;2023-11-18T09:30:54;10.98;;;4.95;;
23228;SDS011;11783;50.350;6.576;2023-11-18T09:33:23;11.10;;;4.10;;
23228;SDS011;11783;50.350;6.576;2023-11-18T09:38:32;15.25;;;5.57;;
23228;SDS011;11783;50.350;6.576;2023-11-18T09:41:01;10.38;;;4.82;;
23228;SDS011;11783;50.350;6.576;2023-11-18T09:43:32;11.00;;;4.43;;
23228;SDS011;11783;50.350;6.576;2023-11-18T09:46:08;14.02;;;5.60;;
23228;SDS011;11783;50.350;6.576;2023-11-18T09:48:45;11.77;;;5.05;;
23228;SDS011;11783;50.350;6.576;2023-11-18T09:51:27;13.38;;;5.03;;
23228;SDS011;11783;50.350;6.576;2023-11-18T09:53:55;10.70;;;4.57;;
23228;SDS011;11783;50.350;6.576;2023-11-18T09:59:14;10.02;;;4.30;;
23228;SDS011;11783;50.350;6.576;2023-11-18T10:01:50;13.07;;;3.72;;
23228;SDS011;11783;50.350;6.576;2023-11-18T10:04:18;9.57;;;3.95;;
23228;SDS011;11783;50.350;6.576;2023-11-18T10:06:45;7.68;;;3.40;;
23228;SDS011;11783;50.350;6.576;2023-11-18T10:09:12;9.75;;;3.40;;
23228;SDS011;11783;50.350;6.576;2023-11-18T10:11:41;6.38;;;3.55;;
23228;SDS011;11783;50.350;6.576;2023-11-18T10:14:08;9.02;;;3.78;;
23228;SDS011;11783;50.350;6.576;2023-11-18T10:16:34;9.05;;;3.60;;
23228;SDS011;11783;50.350;6.576;2023-11-18T10:18:59;9.63;;;3.17;;
23228;SDS011;11783;50.350;6.576;2023-11-18T10:21:37;11.60;;;3.90;;
23228;SDS011;11783;50.350;6.576;2023-11-18T10:24:04;10.02;;;3.90;;
23228;SDS011;11783;50.350;6.576;2023-11-18T10:26:35;8.50;;;3.83;;
23228;SDS011;11783;50.350;6.576;2023-11-18T10:29:03;12.18;;;4.05;;
23228;SDS011;11783;50.350;6.576;2023-11-18T10:31:34;6.20;;;3.10;;
23228;SDS011;11783;50.350;6.576;2023-11-18T10:34:02;11.93;;;4.88;;
23228;SDS011;11783;50.350;6.576;2023-11-18T10:36:29;8.60;;;3.42;;
23228;SDS011;11783;50.350;6.576;2023-11-18T10:38:58;9.43;;;3.63;;
23228;SDS011;11783;50.350;6.576;2023-11-18T10:41:26;10.63;;;3.72;;
23228;SDS011;11783;50.350;6.576;2023-11-18T10:44:07;11.07;;;3.70;;
23228;SDS011;11783;50.350;6.576;2023-11-18T10:46:38;8.80;;;3.65;;
23228;SDS011;11783;50.350;6.576;2023-11-18T10:49:05;8.07;;;3.67;;
23228;SDS011;11783;50.350;6.576;2023-11-18T10:51:35;8.88;;;4.03;;
23228;SDS011;11783;50.350;6.576;2023-11-18T10:54:00;9.85;;;3.63;;
23228;SDS011;11783;50.350;6.576;2023-11-18T10:56:29;7.70;;;3.08;;
23228;SDS011;11783;50.350;6.576;2023-11-18T10:58:58;6.70;;;2.80;;
23228;SDS011;11783;50.350;6.576;2023-11-18T11:01:31;8.60;;;3.65;;
23228;SDS011;11783;50.350;6.576;2023-11-18T11:03:57;9.00;;;3.33;;
23228;SDS011;11783;50.350;6.576;2023-11-18T11:06:24;8.20;;;2.92;;
23228;SDS011;11783;50.350;6.576;2023-11-18T11:08:50;6.90;;;2.58;;
23228;SDS011;11783;50.350;6.576;2023-11-18T11:11:22;7.30;;;3.60;;
23228;SDS011;11783;50.350;6.576;2023-11-18T11:13:53;7.78;;;4.28;;
23228;SDS011;11783;50.350;6.576;2023-11-18T11:16:23;6.50;;;3.33;;
23228;SDS011;11783;50.350;6.576;2023-11-18T11:18:56;6.28;;;3.28;;
23228;SDS011;11783;50.350;6.576;2023-11-18T11:21:31;6.22;;;2.90;;
23228;SDS011;11783;50.350;6.576;2023-11-18T11:24:08;7.70;;;2.88;;
23228;SDS011;11783;50.350;6.576;2023-11-18T11:29:36;10.43;;;3.45;;
23228;SDS011;11783;50.350;6.576;2023-11-18T11:34:37;7.53;;;3.00;;
23228;SDS011;11783;50.350;6.576;2023-11-18T11:37:07;8.43;;;2.90;;
23228;SDS011;11783;50.350;6.576;2023-11-18T11:39:36;7.50;;;3.10;;
23228;SDS011;11783;50.350;6.576;2023-11-18T11:42:03;9.23;;;2.80;;
23228;SDS011;11783;50.350;6.576;2023-11-18T11:44:29;8.18;;;3.10;;
23228;SDS011;11783;50.350;6.576;2023-11-18T11:46:59;7.88;;;2.90;;
23228;SDS011;11783;50.350;6.576;2023-11-18T11:49:26;5.60;;;2.80;;
23228;SDS011;11783;50.350;6.576;2023-11-18T11:52:03;10.57;;;3.20;;
23228;SDS011;11783;50.350;6.576;2023-11-18T11:54:42;6.90;;;3.40;;
23228;SDS011;11783;50.350;6.576;2023-11-18T11:57:14;10.05;;;3.42;;
23228;SDS011;11783;50.350;6.576;2023-11-18T12:02:18;10.70;;;3.10;;
23228;SDS011;11783;50.350;6.576;2023-11-18T12:04:49;7.47;;;3.78;;
23228;SDS011;11783;50.350;6.576;2023-11-18T12:07:22;7.53;;;3.67;;
23228;SDS011;11783;50.350;6.576;2023-11-18T12:09:51;8.13;;;3.30;;
23228;SDS011;11783;50.350;6.576;2023-11-18T12:12:23;9.95;;;4.57;;
23228;SDS011;11783;50.350;6.576;2023-11-18T12:14:53;8.65;;;4.07;;
23228;SDS011;11783;50.350;6.576;2023-11-18T12:17:21;7.95;;;3.55;;
23228;SDS011;11783;50.350;6.576;2023-11-18T12:19:50;12.02;;;3.53;;
23228;SDS011;11783;50.350;6.576;2023-11-18T12:22:23;6.85;;;3.40;;
23228;SDS011;11783;50.350;6.576;2023-11-18T12:35:29;8.63;;;3.08;;
23228;SDS011;11783;50.350;6.576;2023-11-18T12:43:36;8.13;;;4.18;;
23228;SDS011;11783;50.350;6.576;2023-11-18T12:48:49;5.30;;;3.10;;
23228;SDS011;11783;50.350;6.576;2023-11-18T12:51:16;9.38;;;4.35;;
23228;SDS011;11783;50.350;6.576;2023-11-18T12:53:47;8.57;;;4.07;;
23228;SDS011;11783;50.350;6.576;2023-11-18T12:56:14;8.30;;;3.88;;
23228;SDS011;11783;50.350;6.576;2023-11-18T12:58:44;8.02;;;3.38;;
23228;SDS011;11783;50.350;6.576;2023-11-18T13:01:11;7.93;;;3.22;;
23228;SDS011;11783;50.350;6.576;2023-11-18T13:03:39;5.57;;;3.10;;
23228;SDS011;11783;50.350;6.576;2023-11-18T13:06:07;5.50;;;2.97;;
23228;SDS011;11783;50.350;6.576;2023-11-18T13:08:39;7.30;;;3.38;;
23228;SDS011;11783;50.350;6.576;2023-11-18T13:11:07;6.97;;;2.80;;
23228;SDS011;11783;50.350;6.576;2023-11-18T13:13:40;10.88;;;3.25;;
23228;SDS011;11783;50.350;6.576;2023-11-18T13:16:06;6.68;;;3.05;;
23228;SDS011;11783;50.350;6.576;2023-11-18T13:18:46;10.90;;;3.22;;
23228;SDS011;11783;50.350;6.576;2023-11-18T13:21:15;5.88;;;2.60;;
23228;SDS011;11783;50.350;6.576;2023-11-18T13:23:41;8.02;;;3.20;;
23228;SDS011;11783;50.350;6.576;2023-11-18T13:26:10;7.47;;;3.08;;
23228;SDS011;11783;50.350;6.576;2023-11-18T13:28:37;6.47;;;2.70;;
23228;SDS011;11783;50.350;6.576;2023-11-18T13:31:04;5.40;;;2.83;;
23228;SDS011;11783;50.350;6.576;2023-11-18T13:33:35;8.63;;;2.88;;
23228;SDS011;11783;50.350;6.576;2023-11-18T13:36:02;6.50;;;3.10;;
23228;SDS011;11783;50.350;6.576;2023-11-18T13:38:30;6.47;;;2.90;;
23228;SDS011;11783;50.350;6.576;2023-11-18T13:40:56;6.03;;;2.83;;
23228;SDS011;11783;50.350;6.576;2023-11-18T13:43:21;5.68;;;2.75;;
23228;SDS011;11783;50.350;6.576;2023-11-18T13:45:51;8.63;;;3.17;;
23228;SDS011;11783;50.350;6.576;2023-11-18T13:48:18;5.80;;;3.30;;
23228;SDS011;11783;50.350;6.576;2023-11-18T13:50:44;6.25;;;2.90;;
23228;SDS011;11783;50.350;6.576;2023-11-18T13:53:10;6.53;;;2.78;;
23228;SDS011;11783;50.350;6.576;2023-11-18T13:55:35;6.97;;;2.72;;
23228;SDS011;11783;50.350;6.576;2023-11-18T13:58:04;7.32;;;2.70;;
23228;SDS011;11783;50.350;6.576;2023-11-18T14:00:30;5.53;;;2.42;;
23228;SDS011;11783;50.350;6.576;2023-11-18T14:02:57;6.22;;;2.13;;
23228;SDS011;11783;50.350;6.576;2023-11-18T14:05:23;6.32;;;2.65;;
23228;SDS011;11783;50.350;6.576;2023-11-18T14:07:57;5.30;;;1.92;;
23228;SDS011;11783;50.350;6.576;2023-11-18T14:10:34;4.93;;;2.22;;
23228;SDS011;11783;50.350;6.576;2023-11-18T14:13:06;4.60;;;2.13;;
23228;SDS011;11783;50.350;6.576;2023-11-18T14:15:34;3.03;;;1.50;;
23228;SDS011;11783;50.350;6.576;2023-11-18T14:18:00;4.95;;;2.03;;
23228;SDS011;11783;50.350;6.576;2023-11-18T14:20:27;6.38;;;2.28;;
23228;SDS011;11783;50.350;6.576;2023-11-18T14:22:52;3.70;;;1.83;;
23228;SDS011;11783;50.350;6.576;2023-11-18T14:25:17;4.03;;;1.80;;
23228;SDS011;11783;50.350;6.576;2023-11-18T14:27:43;2.88;;;1.42;;
23228;SDS011;11783;50.350;6.576;2023-11-18T14:30:08;2.47;;;1.20;;
23228;SDS011;11783;50.350;6.576;2023-11-18T14:32:34;3.25;;;1.60;;
23228;SDS011;11783;50.350;6.576;2023-11-18T14:35:00;3.67;;;1.60;;
23228;SDS011;11783;50.350;6.576;2023-11-18T14:37:26;3.15;;;1.65;;
23228;SDS011;11783;50.350;6.576;2023-11-18T14:39:51;4.30;;;1.25;;
23228;SDS011;11783;50.350;6.576;2023-11-18T14:42:20;2.85;;;1.40;;
23228;SDS011;11783;50.350;6.576;2023-11-18T14:44:48;4.80;;;1.30;;
23228;SDS011;11783;50.350;6.576;2023-11-18T14:47:14;4.55;;;1.10;;
23228;SDS011;11783;50.350;6.576;2023-11-18T14:49:39;2.80;;;1.13;;
23228;SDS011;11783;50.350;6.576;2023-11-18T14:52:06;2.67;;;1.20;;
23228;SDS011;11783;50.350;6.576;2023-11-18T14:54:32;2.22;;;1.00;;
23228;SDS011;11783;50.350;6.576;2023-11-18T14:57:01;2.58;;;0.98;;
23228;SDS011;11783;50.350;6.576;2023-11-18T14:59:28;2.22;;;1.10;;
23228;SDS011;11783;50.350;6.576;2023-11-18T15:01:53;2.08;;;1.05;;
23228;SDS011;11783;50.350;6.576;2023-11-18T15:04:22;2.67;;;1.50;;
23228;SDS011;11783;50.350;6.576;2023-11-18T15:06:48;3.38;;;0.93;;
23228;SDS011;11783;50.350;6.576;2023-11-18T15:09:17;2.70;;;1.27;;
23228;SDS011;11783;50.350;6.576;2023-11-18T15:11:43;4.78;;;1.20;;
23228;SDS011;11783;50.350;6.576;2023-11-18T15:14:08;2.08;;;1.00;;
23228;SDS011;11783;50.350;6.576;2023-11-18T15:16:36;2.22;;;1.00;;
23228;SDS011;11783;50.350;6.576;2023-11-18T15:19:02;1.98;;;1.05;;
23228;SDS011;11783;50.350;6.576;2023-11-18T15:21:28;2.65;;;1.00;;